Time;durP1;ratioP1;P1;durP2;ratioP2;P2;SDS_P1;SDS_P2;PMS_P1;PMS_P2;Temp;Humidity;BMP_temperature;BMP_pressure;BME280_temperature;BME280_humidity;BME280_pressure;Samples;Min_cycle;Max_cycle;Signal;HPM_P1;HPM_P2
2021/11/17 02:26:18;;;;;;;13.93;10.18;;;;;;;7.17;90.14;101192.50;5015589;28;20037;-78
2021/11/17 02:28:52;;;;;;;13.95;9.48;;;;;;;7.16;89.93;101182.81;5014147;28;20044;-78
2021/11/17 02:31:28;;;;;;;18.73;10.20;;;;;;;7.16;90.25;101172.13;5014894;28;20025;-78
2021/11/17 02:34:18;;;;;;;15.32;9.88;;;;;;;7.17;90.71;101171.94;5011257;28;20065;-78
2021/11/17 02:37:22;;;;;;;18.63;9.05;;;;;;;7.16;90.72;101172.13;5012724;28;20034;-77
2021/11/17 02:39:58;;;;;;;15.90;10.07;;;;;;;7.19;90.65;101163.75;5011882;28;20064;-78
2021/11/17 02:42:45;;;;;;;13.73;9.32;;;;;;;7.20;90.12;101160.06;5012005;28;20018;-78
2021/11/17 02:45:26;;;;;;;15.68;10.25;;;;;;;7.22;90.24;101164.25;5013225;28;20148;-77
2021/11/17 02:48:07;;;;;;;14.98;10.35;;;;;;;7.15;89.85;101143.66;5013592;28;20115;-78
2021/11/17 02:50:56;;;;;;;16.02;9.75;;;;;;;7.24;90.38;101151.53;4996499;28;20037;-77
2021/11/17 02:53:28;;;;;;;14.15;9.82;;;;;;;7.25;90.75;101147.00;5013381;28;20485;-78
2021/11/17 02:56:07;;;;;;;17.45;10.23;;;;;;;7.26;90.63;101140.66;5012587;28;20037;-78
2021/11/17 02:58:51;;;;;;;17.15;10.70;;;;;;;7.28;90.41;101135.94;4997552;28;20095;-78
2021/11/17 03:01:34;;;;;;;15.73;11.13;;;;;;;7.16;90.71;101111.41;5012833;28;20022;-78
2021/11/17 03:04:24;;;;;;;14.25;10.00;;;;;;;7.25;90.46;101113.06;5014185;28;20348;-78
2021/11/17 03:06:56;;;;;;;15.73;10.57;;;;;;;7.24;90.72;101116.72;5012288;28;20030;-78
2021/11/17 03:10:07;;;;;;;21.65;10.85;;;;;;;7.28;90.65;101118.09;5012730;28;20042;-78
2021/11/17 03:13:13;;;;;;;17.70;10.90;;;;;;;7.28;90.19;101106.50;5012537;28;20026;-78
2021/11/17 03:16:20;;;;;;;19.15;11.30;;;;;;;7.27;90.58;101107.53;5015010;28;20030;-77
2021/11/17 03:18:58;;;;;;;15.75;11.02;;;;;;;7.25;90.55;101101.50;5014078;28;20493;-78
2021/11/17 03:21:36;;;;;;;14.02;10.23;;;;;;;7.28;90.25;101110.06;5010836;28;20517;-78
2021/11/17 03:24:19;;;;;;;15.50;10.68;;;;;;;7.29;90.47;101098.31;5012693;28;20403;-78
2021/11/17 03:26:51;;;;;;;17.27;11.60;;;;;;;7.25;90.29;101090.78;5012836;28;20459;-77
2021/11/17 03:29:34;;;;;;;20.60;10.90;;;;;;;7.29;90.56;101089.47;5018677;28;20404;-78
2021/11/17 03:32:15;;;;;;;18.55;11.15;;;;;;;7.28;90.28;101085.97;5009820;28;20042;-77
2021/11/17 03:35:08;;;;;;;17.58;10.98;;;;;;;7.28;90.48;101077.06;5021308;28;20018;-78
2021/11/17 03:38:04;;;;;;;15.68;11.32;;;;;;;7.28;90.23;101077.06;5012173;28;20025;-78
2021/11/17 03:41:07;;;;;;;16.17;10.90;;;;;;;7.26;89.81;101068.41;5012218;28;20104;-78
2021/11/17 03:43:43;;;;;;;17.33;12.00;;;;;;;7.18;90.23;101052.34;5013026;28;20367;-78
2021/11/17 03:46:17;;;;;;;17.83;12.13;;;;;;;7.24;90.39;101049.81;5012096;28;20018;-77
2021/11/17 03:48:52;;;;;;;20.65;12.48;;;;;;;7.26;89.89;101060.38;5014344;28;20471;-78
2021/11/17 03:51:41;;;;;;;14.95;11.23;;;;;;;7.25;89.90;101064.88;5014345;28;20038;-77
2021/11/17 03:54:34;;;;;;;17.63;12.13;;;;;;;7.26;89.96;101055.00;5019547;28;20030;-77
2021/11/17 03:57:18;;;;;;;18.67;12.73;;;;;;;7.26;90.45;101061.19;5016238;28;20429;-77
2021/11/17 03:59:58;;;;;;;18.77;12.18;;;;;;;7.26;90.26;101057.69;5017083;28;20511;-78
2021/11/17 04:02:33;;;;;;;19.00;11.88;;;;;;;7.25;90.53;101062.22;5015846;28;20494;-78
2021/11/17 04:05:29;;;;;;;19.40;12.77;;;;;;;7.26;90.56;101055.00;5016984;28;20026;-78
2021/11/17 04:08:00;;;;;;;16.75;11.65;;;;;;;7.27;90.58;101057.50;5017199;28;20042;-78
2021/11/17 04:10:32;;;;;;;18.10;11.50;;;;;;;7.28;90.71;101055.66;5014594;28;20029;-79
2021/11/17 04:13:22;;;;;;;17.23;11.02;;;;;;;7.26;90.71;101047.81;5017971;28;20029;-78
2021/11/17 04:16:00;;;;;;;19.17;11.02;;;;;;;7.25;91.00;101051.50;4999438;28;20336;-78
2021/11/17 04:18:26;;;;;;;22.30;11.80;;;;;;;7.27;90.79;101043.28;5000039;28;20033;-78
2021/11/17 04:20:55;;;;;;;19.10;11.07;;;;;;;7.29;90.79;101046.63;5016661;28;20021;-77
2021/11/17 04:23:41;;;;;;;18.52;11.02;;;;;;;7.28;90.75;101043.13;5016983;28;20056;-78
2021/11/17 04:26:22;;;;;;;20.13;11.40;;;;;;;7.23;90.86;101033.94;5016381;28;20026;-78
2021/11/17 04:28:56;;;;;;;18.67;11.52;;;;;;;7.24;90.77;101024.91;5018267;28;20061;-77
2021/11/17 04:31:41;;;;;;;16.52;10.68;;;;;;;7.13;91.03;101007.38;5016544;28;20022;-78
2021/11/17 04:34:26;;;;;;;;;;;;;;;7.18;90.78;101010.34;5018494;28;20022;-78
2021/11/17 04:36:57;;;;;;;18.15;10.50;;;;;;;7.16;90.63;101011.53;5009765;28;19917;-78
2021/11/17 04:39:22;;;;;;;16.27;10.10;;;;;;;7.17;90.77;101027.41;5018502;28;20025;-77
2021/11/17 04:42:29;;;;;;;16.50;10.00;;;;;;;7.11;90.93;101013.88;5016521;28;20479;-78
2021/11/17 04:45:16;;;;;;;16.80;9.55;;;;;;;7.15;90.67;101025.91;5014848;28;20025;-78
2021/11/17 04:47:50;;;;;;;14.75;9.27;;;;;;;7.18;90.15;101012.19;5020761;28;20038;-78
2021/11/17 04:50:28;;;;;;;15.02;9.48;;;;;;;7.16;90.14;101007.03;5021495;28;20017;-78
2021/11/17 04:52:56;;;;;;;16.83;9.65;;;;;;;7.20;90.68;101010.19;5015610;28;20038;-78
2021/11/17 04:55:40;;;;;;;18.08;10.38;;;;;;;7.22;90.84;101005.50;5014850;28;20113;-78
2021/11/17 04:58:43;;;;;;;16.75;10.00;;;;;;;7.24;90.56;101009.66;5013139;28;20025;-78
2021/11/17 05:01:27;;;;;;;13.30;8.85;;;;;;;7.23;90.76;100999.16;5015383;28;20029;-78
2021/11/17 05:04:05;;;;;;;15.95;8.65;;;;;;;7.23;90.50;100983.09;5015281;28;20058;-78
2021/11/17 05:06:42;;;;;;;16.38;9.07;;;;;;;7.21;90.83;100983.25;5015428;28;20026;-77
2021/11/17 05:09:32;;;;;;;17.40;8.73;;;;;;;7.23;90.89;100972.38;5013797;28;20056;-78
2021/11/17 05:12:10;;;;;;;14.10;8.52;;;;;;;7.22;90.53;100962.69;5015493;28;20017;-77
2021/11/17 05:15:00;;;;;;;18.50;8.55;;;;;;;7.23;90.50;100942.94;5013398;28;20530;-78
2021/11/17 05:17:43;;;;;;;17.98;9.38;;;;;;;7.22;90.87;100946.63;5013841;28;20037;-78
2021/11/17 05:20:15;;;;;;;16.88;9.02;;;;;;;7.23;91.11;100942.94;5016212;28;20025;-78
2021/11/17 05:23:09;;;;;;;14.55;8.27;;;;;;;7.23;91.51;100951.78;5013165;28;20030;-77
2021/11/17 05:25:50;;;;;;;18.65;9.10;;;;;;;7.24;91.37;100940.06;4993169;28;20371;-78
2021/11/17 05:29:08;;;;;;;17.98;9.00;;;;;;;7.25;91.68;100930.19;4994073;28;20030;-78
2021/11/17 05:32:01;;;;;;;19.13;8.68;;;;;;;7.22;92.05;100936.75;4982561;28;20494;-78
2021/11/17 05:34:35;;;;;;;18.10;7.95;;;;;;;7.22;92.13;100928.72;5009684;28;20439;-78
2021/11/17 05:37:18;;;;;;;16.92;7.88;;;;;;;7.24;92.30;100939.25;5010417;28;20026;-78
2021/11/17 05:39:50;;;;;;;15.63;8.52;;;;;;;7.12;92.35;100909.38;5014608;28;20029;-77
2021/11/17 05:42:39;;;;;;;14.60;7.20;;;;;;;7.23;92.36;100921.53;5013307;28;20732;-78
2021/11/17 05:45:07;;;;;;;13.90;7.40;;;;;;;7.28;92.57;100927.19;5016681;28;20014;-78
2021/11/17 05:47:47;;;;;;;15.90;8.18;;;;;;;7.32;92.95;100924.97;5018046;28;20495;-78
2021/11/17 05:50:16;;;;;;;14.35;8.30;;;;;;;7.33;92.64;100915.97;5009300;28;20040;-78
2021/11/17 05:52:47;;;;;;;15.75;8.40;;;;;;;7.38;93.07;100909.06;5012588;28;20120;-78
2021/11/17 05:55:28;;;;;;;13.80;8.20;;;;;;;7.37;92.93;100914.59;5013319;28;20089;-77
2021/11/17 05:57:56;;;;;;;15.13;8.20;;;;;;;7.37;93.75;100915.44;5014516;28;20462;-79
2021/11/17 06:00:39;;;;;;;15.35;8.13;;;;;;;7.40;93.67;100901.69;5009076;28;20514;-77
2021/11/17 06:03:11;;;;;;;19.00;8.20;;;;;;;7.45;93.91;100910.03;5025398;28;20042;-77
2021/11/17 06:05:36;;;;;;;17.02;9.02;;;;;;;7.44;94.12;100907.53;5017630;28;20029;-77
2021/11/17 06:08:02;;;;;;;15.13;8.80;;;;;;;7.45;94.15;100917.22;5011300;28;20402;-78
2021/11/17 06:10:36;;;;;;;16.48;9.43;;;;;;;7.33;94.31;100889.19;5008633;28;20093;-78
2021/11/17 06:13:04;;;;;;;16.13;9.77;;;;;;;7.43;94.51;100896.00;5013080;28;20030;-79
2021/11/17 06:15:32;;;;;;;17.15;9.15;;;;;;;7.40;94.79;100892.84;5011669;28;20262;-78
2021/11/17 06:17:59;;;;;;;15.98;9.10;;;;;;;7.52;94.76;100902.97;5014713;28;20032;-78
2021/11/17 06:20:26;;;;;;;18.80;9.32;;;;;;;7.55;95.31;100896.44;5012605;28;20046;-78
2021/11/17 06:22:56;;;;;;;16.63;9.23;;;;;;;7.57;95.56;100899.75;5008562;28;20041;-78
2021/11/17 06:25:23;;;;;;;15.45;8.23;;;;;;;7.54;95.56;100898.25;5008957;28;20068;-78
2021/11/17 06:27:52;;;;;;;16.17;9.05;;;;;;;7.52;95.64;100894.94;4991632;28;20045;-78
2021/11/17 06:30:20;;;;;;;14.85;9.00;;;;;;;7.58;96.08;100895.22;5011564;28;20502;-78
2021/11/17 06:32:46;;;;;;;19.35;9.30;;;;;;;7.62;96.42;100893.88;5014576;28;20025;-78
2021/11/17 06:35:14;;;;;;;18.13;9.45;;;;;;;7.47;96.24;100853.63;5011045;28;20025;-78
2021/11/17 06:37:39;;;;;;;18.80;9.20;;;;;;;7.66;96.21;100873.75;5007693;28;20049;-77
2021/11/17 06:40:12;;;;;;;21.35;9.38;;;;;;;7.68;96.66;100879.75;5010332;28;20080;-79
2021/11/17 06:42:41;;;;;;;21.20;10.35;;;;;;;7.68;97.28;100863.69;5013940;28;20032;-78
2021/11/17 06:45:19;;;;;;;22.48;10.23;;;;;;;7.73;97.16;100858.63;5015264;28;20030;-78
2021/11/17 06:47:45;;;;;;;21.15;9.85;;;;;;;7.75;97.01;100864.66;5014714;28;20117;-78
2021/11/17 06:50:12;;;;;;;20.38;10.20;;;;;;;7.62;97.33;100824.25;5020505;28;20030;-79
2021/11/17 06:52:38;;;;;;;20.00;10.85;;;;;;;7.75;97.70;100851.25;5018763;28;20061;-78
2021/11/17 06:55:05;;;;;;;22.05;10.05;;;;;;;7.82;98.00;100851.38;5014954;28;20435;-78
2021/11/17 06:57:31;;;;;;;25.13;10.85;;;;;;;7.59;97.77;100822.75;5014343;28;20037;-78
2021/11/17 06:59:58;;;;;;;22.92;11.38;;;;;;;7.72;98.42;100835.56;5013802;28;20029;-78
2021/11/17 07:02:23;;;;;;;26.85;11.73;;;;;;;7.86;98.17;100853.50;5012753;28;20064;-78
2021/11/17 07:04:49;;;;;;;25.33;11.60;;;;;;;7.89;98.29;100844.28;5011824;28;20034;-79
2021/11/17 07:07:16;;;;;;;27.58;12.60;;;;;;;7.94;98.32;100850.75;5009829;28;20116;-78
2021/11/17 07:09:43;;;;;;;26.85;11.98;;;;;;;7.92;98.68;100842.06;5014200;28;20032;-78
2021/11/17 07:12:12;;;;;;;28.65;11.65;;;;;;;8.00;98.56;100833.94;5018109;28;20057;-78
2021/11/17 07:14:39;;;;;;;28.42;11.77;;;;;;;8.05;99.06;100828.06;5014647;28;20033;-78
2021/11/17 07:17:05;;;;;;;25.98;11.77;;;;;;;8.00;98.77;100823.22;5013898;28;20033;-78
2021/11/17 07:19:31;;;;;;;26.42;12.25;;;;;;;8.02;99.42;100823.06;5012843;28;20133;-78
2021/11/17 07:22:00;;;;;;;32.25;12.63;;;;;;;8.09;99.38;100825.84;5014709;28;20030;-77
2021/11/17 07:24:27;;;;;;;23.35;12.07;;;;;;;8.15;99.49;100825.94;5012889;28;20396;-78
2021/11/17 07:26:53;;;;;;;27.23;12.18;;;;;;;8.21;99.42;100829.72;5018366;28;20564;-78
2021/11/17 07:29:19;;;;;;;24.20;11.13;;;;;;;8.14;99.72;100828.81;5017299;28;20030;-78
2021/11/17 07:31:45;;;;;;;25.33;12.30;;;;;;;8.16;100.00;100837.50;5010772;28;20026;-78
2021/11/17 07:34:11;;;;;;;30.25;12.05;;;;;;;8.07;100.00;100823.34;5011527;28;20044;-78
2021/11/17 07:36:38;;;;;;;30.95;13.75;;;;;;;8.12;100.00;100833.53;5011811;28;20477;-78
2021/11/17 07:39:04;;;;;;;30.85;12.88;;;;;;;8.08;100.00;100837.56;5012375;28;20177;-78
2021/11/17 07:41:32;;;;;;;29.70;13.10;;;;;;;8.03;100.00;100826.56;5012412;28;20034;-78
2021/11/17 07:43:58;;;;;;;30.25;11.98;;;;;;;8.04;100.00;100842.44;5012141;28;20436;-78
2021/11/17 07:46:23;;;;;;;31.05;12.40;;;;;;;7.98;100.00;100822.59;5011385;28;20080;-78
2021/11/17 07:48:49;;;;;;;34.65;13.50;;;;;;;7.89;100.00;100809.47;5012119;28;20121;-78
2021/11/17 07:51:15;;;;;;;28.33;13.55;;;;;;;7.91;100.00;100815.44;5012549;28;20456;-78
2021/11/17 07:53:41;;;;;;;32.58;12.90;;;;;;;8.01;100.00;100821.38;5013852;28;20053;-78
2021/11/17 07:56:07;;;;;;;30.95;12.32;;;;;;;7.99;100.00;100818.06;5013149;28;20426;-78
2021/11/17 07:58:38;;;;;;;31.67;13.45;;;;;;;8.02;100.00;100819.56;5011354;28;20523;-78
2021/11/17 08:01:05;;;;;;;30.23;13.20;;;;;;;7.82;100.00;100795.94;5012091;28;20034;-78
2021/11/17 08:03:35;;;;;;;37.22;12.65;;;;;;;7.94;100.00;100799.84;5013400;28;20058;-78
2021/11/17 08:06:01;;;;;;;34.42;14.25;;;;;;;8.07;100.00;100819.81;5012063;28;20033;-78
2021/11/17 08:08:30;;;;;;;37.78;13.90;;;;;;;7.94;100.00;100807.06;5001179;28;20099;-78
2021/11/17 08:10:56;;;;;;;34.38;15.02;;;;;;;8.04;100.00;100812.16;5012623;28;20029;-78
2021/11/17 08:13:21;;;;;;;34.42;14.32;;;;;;;8.04;100.00;100815.66;5013301;28;20037;-77
2021/11/17 08:15:47;;;;;;;41.85;14.70;;;;;;;8.05;100.00;100819.19;5011780;28;20018;-78
2021/11/17 08:18:12;;;;;;;36.10;15.10;;;;;;;8.05;100.00;100811.97;5012824;28;20041;-78
2021/11/17 08:20:38;;;;;;;37.58;15.52;;;;;;;8.07;100.00;100807.25;5013097;28;20113;-78
2021/11/17 08:23:04;;;;;;;39.95;14.60;;;;;;;8.08;100.00;100797.38;4995706;28;20367;-78
2021/11/17 08:25:35;;;;;;;36.75;14.35;;;;;;;7.87;100.00;100763.25;5010922;28;20030;-78
2021/11/17 08:28:00;;;;;;;40.97;14.90;;;;;;;8.06;100.00;100791.38;5012491;28;20037;-78
2021/11/17 08:30:30;;;;;;;42.50;16.45;;;;;;;8.07;100.00;100775.09;5011455;28;20102;-78
2021/11/17 08:32:56;;;;;;;39.88;15.27;;;;;;;8.04;100.00;100771.94;5012560;28;20057;-77
2021/11/17 08:35:26;;;;;;;43.55;16.58;;;;;;;8.07;100.00;100793.84;5014453;28;20064;-78
2021/11/17 08:37:54;;;;;;;41.10;16.02;;;;;;;8.07;100.00;100780.47;5015696;28;20532;-78
2021/11/17 08:40:27;;;;;;;45.17;16.27;;;;;;;8.07;100.00;100776.94;5020881;28;20036;-79
2021/11/17 08:42:53;;;;;;;44.63;15.70;;;;;;;8.10;100.00;100784.63;5017008;28;20030;-78
2021/11/17 08:45:19;;;;;;;40.70;15.60;;;;;;;8.05;100.00;100763.75;5016304;28;20514;-78
2021/11/17 08:47:45;;;;;;;40.03;15.10;;;;;;;8.12;100.00;100771.88;5014902;28;20041;-78
2021/11/17 08:50:16;;;;;;;42.00;15.30;;;;;;;8.03;100.00;100743.50;5016874;28;20076;-78
2021/11/17 08:52:42;;;;;;;41.97;15.77;;;;;;;8.14;100.00;100765.31;5013652;28;20065;-78
2021/11/17 08:55:09;;;;;;;40.63;14.20;;;;;;;8.13;100.00;100757.47;5015778;28;20104;-78
2021/11/17 08:57:37;;;;;;;40.53;14.82;;;;;;;7.98;100.00;100731.50;5014375;28;20022;-78
2021/11/17 09:00:07;;;;;;;44.30;15.25;;;;;;;8.04;100.00;100731.75;5014263;28;20030;-78
2021/11/17 09:02:33;;;;;;;41.80;14.55;;;;;;;8.11;100.00;100738.91;5013958;28;20060;-78
2021/11/17 09:04:59;;;;;;;37.97;13.95;;;;;;;8.12;100.00;100745.09;5014104;28;20207;-78
2021/11/17 09:07:24;;;;;;;45.75;14.68;;;;;;;8.06;100.00;100732.41;4998334;28;20117;-78
2021/11/17 09:09:50;;;;;;;40.22;14.38;;;;;;;7.98;100.00;100712.75;5016563;28;20465;-77
2021/11/17 09:12:16;;;;;;;42.10;14.90;;;;;;;8.15;100.00;100744.72;5015882;28;20036;-78
2021/11/17 09:14:42;;;;;;;38.45;14.93;;;;;;;8.08;100.00;100727.69;5016655;28;20026;-78
2021/11/17 09:17:09;;;;;;;38.30;14.10;;;;;;;8.18;100.00;100744.34;5014923;28;20030;-78
2021/11/17 09:19:35;;;;;;;42.38;15.18;;;;;;;8.08;100.00;100716.97;5023029;28;20038;-78
2021/11/17 09:22:01;;;;;;;42.33;13.98;;;;;;;8.11;100.00;100730.84;5013019;28;20030;-77
2021/11/17 09:24:27;;;;;;;44.15;15.27;;;;;;;8.20;100.00;100750.34;5014917;28;20056;-78
2021/11/17 09:26:53;;;;;;;41.75;13.93;;;;;;;8.08;100.00;100719.66;5013991;28;20484;-78
2021/11/17 09:29:23;;;;;;;40.20;13.50;;;;;;;8.08;100.00;100708.94;5015901;28;20025;-78
2021/11/17 09:31:51;;;;;;;35.00;13.70;;;;;;;8.15;100.00;100717.91;5013588;28;20340;-78
2021/11/17 09:34:17;;;;;;;44.80;13.85;;;;;;;8.28;100.00;100741.38;5014888;28;20087;-77
2021/11/17 09:36:43;;;;;;;37.83;13.05;;;;;;;8.31;100.00;100732.94;5013772;28;20380;-77
2021/11/17 09:39:10;;;;;;;40.70;13.00;;;;;;;8.31;100.00;100732.94;5013875;28;20517;-78
2021/11/17 09:41:40;;;;;;;38.92;13.15;;;;;;;8.28;100.00;100725.28;5015018;28;20099;-78
2021/11/17 09:44:12;;;;;;;40.33;12.82;;;;;;;8.17;100.00;100707.81;5013518;28;20033;-78
2021/11/17 09:46:41;;;;;;;33.65;11.70;;;;;;;8.29;100.00;100729.66;5012759;28;20022;-77
2021/11/17 09:49:18;;;;;;;37.25;12.15;;;;;;;8.32;100.00;100731.94;5015227;28;20069;-78
2021/11/17 09:51:50;;;;;;;44.40;14.35;;;;;;;8.33;100.00;100726.41;5013120;28;20463;-78
2021/11/17 09:54:26;;;;;;;34.00;11.77;;;;;;;8.28;100.00;100717.22;5016095;28;20035;-78
2021/11/17 09:57:10;;;;;;;32.70;10.57;;;;;;;8.33;100.00;100722.88;5017954;28;20058;-78
2021/11/17 09:59:42;;;;;;;33.45;10.32;;;;;;;8.23;100.00;100702.53;5013289;28;20018;-78
2021/11/17 10:02:37;;;;;;;33.65;10.07;;;;;;;8.34;100.00;100725.38;5013314;28;20025;-78
2021/11/17 10:06:18;;;;;;;32.58;8.88;;;;;;;8.22;100.00;100705.44;5006762;28;20085;-78
2021/11/17 10:14:01;;;;;;;23.08;6.93;;;;;;;8.21;100.00;100688.53;5010990;28;20466;-78
2021/11/17 10:16:27;;;;;;;24.23;7.30;;;;;;;8.40;100.00;100708.56;5014723;28;20043;-78
2021/11/17 10:19:11;;;;;;;25.35;7.18;;;;;;;8.43;100.00;100710.06;5012192;28;20367;-78
2021/11/17 10:21:37;;;;;;;26.63;7.65;;;;;;;8.46;100.00;100713.19;5015566;28;20052;-78
2021/11/17 10:24:07;;;;;;;28.35;6.28;;;;;;;8.50;100.00;100704.78;5014593;28;20033;-78
2021/11/17 10:26:59;;;;;;;24.02;5.82;;;;;;;8.55;100.00;100692.47;5015310;28;20050;-78
2021/11/17 10:30:02;;;;;;;19.20;5.50;;;;;;;8.52;100.00;100679.44;5018506;28;20022;-77
2021/11/17 10:32:42;;;;;;;21.88;5.70;;;;;;;8.61;100.00;100690.84;5012356;28;20041;-78
2021/11/17 10:35:25;;;;;;;21.00;5.40;;;;;;;8.62;100.00;100676.44;5014351;28;20101;-78
2021/11/17 10:38:17;;;;;;;27.98;6.32;;;;;;;8.64;100.00;100685.13;5014369;28;20026;-77
2021/11/17 10:40:50;;;;;;;28.10;6.43;;;;;;;8.59;100.00;100672.28;5014608;28;20033;-77
2021/11/17 10:43:29;;;;;;;28.58;7.15;;;;;;;8.57;100.00;100674.31;5009713;28;20083;-77
2021/11/17 10:46:10;;;;;;;27.58;7.45;;;;;;;8.46;100.00;100646.16;5014429;28;20489;-78
2021/11/17 10:48:40;;;;;;;30.88;8.80;;;;;;;8.59;100.00;100683.00;5013009;28;20484;-78
2021/11/17 10:51:14;;;;;;;27.15;8.02;;;;;;;8.63;100.00;100683.47;5012087;28;20018;-78
2021/11/17 10:53:40;;;;;;;30.85;8.02;;;;;;;8.61;100.00;100672.09;5013542;28;20407;-77
2021/11/17 10:56:14;;;;;;;29.05;8.02;;;;;;;8.59;100.00;100674.16;5012011;28;20402;-78
2021/11/17 10:58:44;;;;;;;28.27;7.10;;;;;;;8.58;100.00;100676.00;5012041;28;20057;-77
2021/11/17 11:01:14;;;;;;;30.80;8.13;;;;;;;8.59;100.00;100679.50;5014314;28;20018;-77
2021/11/17 11:03:55;;;;;;;29.25;8.05;;;;;;;8.61;100.00;100667.56;5013348;28;20105;-78
2021/11/17 11:06:38;;;;;;;31.63;8.13;;;;;;;8.57;100.00;100673.50;5008120;28;20030;-77
2021/11/17 11:09:35;;;;;;;32.97;8.23;;;;;;;8.41;100.00;100647.72;5016817;28;20045;-78
2021/11/17 11:12:02;;;;;;;25.90;8.55;;;;;;;8.58;100.00;100664.44;5014449;28;20022;-78
2021/11/17 11:14:36;;;;;;;27.75;8.27;;;;;;;8.54;100.00;100652.41;5012944;28;20030;-78
2021/11/17 11:17:20;;;;;;;27.13;8.68;;;;;;;8.62;100.00;100655.00;5013977;28;20100;-78
2021/11/17 11:19:45;;;;;;;31.17;8.85;;;;;;;8.68;100.00;100648.88;5006108;28;20041;-78
2021/11/17 11:22:29;;;;;;;29.58;9.27;;;;;;;8.70;100.00;100646.81;5003644;28;20026;-77
2021/11/17 11:24:58;;;;;;;35.53;9.10;;;;;;;8.71;100.00;100648.50;5019755;28;20026;-77
2021/11/17 11:27:33;;;;;;;31.45;8.93;;;;;;;8.77;100.00;100642.34;5017173;28;20060;-78
2021/11/17 11:30:07;;;;;;;31.25;9.18;;;;;;;8.80;100.00;100646.50;5014763;28;20460;-78
2021/11/17 11:32:36;;;;;;;33.42;9.63;;;;;;;8.76;100.00;100646.06;5013559;28;20371;-77
2021/11/17 11:35:04;;;;;;;33.58;9.80;;;;;;;8.77;100.00;100652.25;5014437;28;20033;-78
2021/11/17 11:37:32;;;;;;;36.15;10.38;;;;;;;8.80;100.00;100654.53;5012862;28;20100;-78
2021/11/17 11:40:25;;;;;;;29.67;9.80;;;;;;;8.79;100.00;100648.34;5018436;28;20065;-77
2021/11/17 11:42:59;;;;;;;28.77;9.18;;;;;;;8.82;100.00;100641.78;5013868;28;20044;-77
2021/11/17 11:45:28;;;;;;;32.25;8.85;;;;;;;8.81;100.00;100634.75;5010668;28;20022;-77
2021/11/17 11:48:03;;;;;;;25.70;8.20;;;;;;;8.88;100.00;100632.97;5012530;28;20061;-77
2021/11/17 11:50:54;;;;;;;26.05;8.32;;;;;;;8.89;100.00;100634.63;5013508;28;20029;-77
2021/11/17 11:53:22;;;;;;;23.20;8.32;;;;;;;8.90;100.00;100626.38;5013326;28;20444;-78
2021/11/17 11:55:53;;;;;;;21.15;8.07;;;;;;;8.95;100.00;100631.19;5013335;28;20037;-78
2021/11/17 11:58:19;;;;;;;28.58;8.02;;;;;;;8.97;100.00;100628.28;5013388;28;20026;-78
2021/11/17 12:01:13;;;;;;;37.83;8.30;;;;;;;8.97;100.00;100625.59;5013721;28;20120;-78
2021/11/17 12:04:21;;;;;;;29.27;9.20;;;;;;;9.02;100.00;100632.06;5011107;28;20042;-78
2021/11/17 12:06:55;;;;;;;25.50;7.35;;;;;;;9.00;100.00;100631.41;4935155;29;20316;-78
2021/11/17 12:09:33;;;;;;;28.23;7.65;;;;;;;9.04;100.00;100631.84;5004841;28;20045;-78
2021/11/17 12:12:04;;;;;;;24.65;7.43;;;;;;;9.09;100.00;100624.88;5017133;28;20033;-78
2021/11/17 12:14:35;;;;;;;25.77;7.55;;;;;;;9.09;100.00;100632.94;5016881;28;20022;-78
2021/11/17 12:17:02;;;;;;;26.27;7.40;;;;;;;9.12;100.00;100637.09;5017349;28;20033;-78
2021/11/17 12:19:34;;;;;;;22.63;7.28;;;;;;;9.17;100.00;100626.59;4999139;28;20038;-78
2021/11/17 12:22:14;;;;;;;24.75;7.15;;;;;;;9.11;100.00;100616.66;5013993;28;20028;-78
2021/11/17 12:24:51;;;;;;;23.70;6.20;;;;;;;9.09;100.00;100618.69;5020680;28;20471;-78
2021/11/17 12:27:23;;;;;;;24.48;6.30;;;;;;;9.16;100.00;100627.63;5018695;28;20029;-77
2021/11/17 12:30:04;;;;;;;18.13;5.50;;;;;;;9.17;100.00;100621.22;5016331;28;20046;-78
2021/11/17 12:32:35;;;;;;;30.75;6.80;;;;;;;9.16;100.00;100617.72;5015460;28;20041;-78
2021/11/17 12:35:06;;;;;;;22.00;5.70;;;;;;;9.23;100.00;100630.38;5015296;28;20076;-78
2021/11/17 12:37:35;;;;;;;24.52;5.60;;;;;;;9.23;100.00;100631.19;5013489;28;20092;-78
2021/11/17 12:40:03;;;;;;;24.15;5.80;;;;;;;9.26;100.00;100620.06;5017223;28;20029;-77
2021/11/17 12:42:39;;;;;;;25.30;5.95;;;;;;;9.27;100.00;100623.56;5015478;28;20017;-78
2021/11/17 12:45:30;;;;;;;23.65;5.38;;;;;;;9.26;100.00;100613.88;5014930;28;20033;-78
2021/11/17 12:48:27;;;;;;;23.13;5.38;;;;;;;9.28;100.00;100615.34;5007226;28;20045;-78
2021/11/17 12:51:04;;;;;;;29.52;5.10;;;;;;;9.25;100.00;100596.94;5007830;28;20042;-79
2021/11/17 12:53:38;;;;;;;28.00;5.13;;;;;;;9.32;100.00;100605.03;5020381;28;20026;-78
2021/11/17 12:56:21;;;;;;;21.08;4.53;;;;;;;9.26;100.00;100598.59;5018115;28;20029;-77
2021/11/17 12:58:57;;;;;;;30.10;4.53;;;;;;;9.26;100.00;100589.72;5016941;28;20045;-78
2021/11/17 13:01:28;;;;;;;24.60;4.40;;;;;;;9.37;100.00;100613.31;5018801;28;20363;-78
2021/11/17 13:04:20;;;;;;;40.13;4.60;;;;;;;9.36;100.00;100623.22;5015622;28;20049;-78
2021/11/17 13:06:56;;;;;;;23.25;4.05;;;;;;;9.35;100.00;100613.53;5011529;28;20049;-78
2021/11/17 13:09:28;;;;;;;26.88;3.72;;;;;;;9.37;100.00;100616.88;5013997;28;20026;-78
2021/11/17 13:12:13;;;;;;;28.88;3.25;;;;;;;9.21;100.00;100614.47;5014971;28;20498;-77
2021/11/17 13:14:44;;;;;;;18.40;3.00;;;;;;;9.21;100.00;100610.97;5016031;28;20104;-78
2021/11/17 13:17:18;;;;;;;20.88;3.10;;;;;;;9.29;100.00;100600.06;5014110;28;20026;-78
2021/11/17 13:20:06;;;;;;;23.92;3.08;;;;;;;9.27;100.00;100592.22;5015912;28;20348;-78
2021/11/17 13:22:35;;;;;;;19.20;2.58;;;;;;;9.19;99.52;100576.22;5014421;28;20026;-77
2021/11/17 13:25:10;;;;;;;21.02;3.03;;;;;;;9.29;99.02;100587.47;5013723;28;20051;-77
2021/11/17 13:27:43;;;;;;;18.92;3.13;;;;;;;9.33;98.18;100582.53;5015090;28;20030;-78
2021/11/17 13:30:09;;;;;;;12.10;2.13;;;;;;;9.28;97.08;100585.81;5014293;28;20470;-78
2021/11/17 13:32:42;;;;;;;16.05;2.05;;;;;;;9.36;96.07;100591.00;5015611;28;20037;-78
2021/11/17 13:35:24;;;;;;;21.00;3.40;;;;;;;9.40;95.04;100595.00;5013661;28;20022;-77
2021/11/17 13:37:50;;;;;;;18.80;2.75;;;;;;;9.39;95.07;100593.31;5014301;28;20482;-78
2021/11/17 13:40:21;;;;;;;18.40;2.20;;;;;;;9.16;93.93;100547.09;5017227;28;20041;-77
2021/11/17 13:42:48;;;;;;;25.23;3.38;;;;;;;9.52;93.38;100603.31;5019480;28;20450;-77
2021/11/17 13:45:27;;;;;;;17.85;2.65;;;;;;;9.49;92.59;100592.97;5015560;28;20030;-78
2021/11/17 13:47:53;;;;;;;19.25;2.92;;;;;;;9.58;93.11;100604.38;5011208;28;20026;-77
2021/11/17 13:50:21;;;;;;;22.02;2.92;;;;;;;9.52;91.50;100594.44;5014372;28;20092;-77
2021/11/17 13:52:48;;;;;;;23.13;3.13;;;;;;;9.61;90.96;100609.38;5013734;28;20058;-78
2021/11/17 13:55:27;;;;;;;14.65;2.30;;;;;;;9.62;91.64;100611.00;5013910;28;20029;-78
2021/11/17 13:57:54;;;;;;;14.88;2.20;;;;;;;9.56;90.45;100614.50;5012789;28;20021;-77
2021/11/17 14:00:22;;;;;;;18.38;2.72;;;;;;;9.58;90.39;100615.94;5018216;28;20363;-77
2021/11/17 14:02:48;;;;;;;17.20;3.10;;;;;;;9.56;89.67;100614.50;5018456;28;20510;-78
2021/11/17 14:05:18;;;;;;;18.38;2.70;;;;;;;9.61;89.32;100620.94;5014372;28;20053;-78
2021/11/17 14:07:46;;;;;;;17.75;2.50;;;;;;;9.59;89.76;100624.84;5014689;28;20041;-78
2021/11/17 14:10:12;;;;;;;15.27;2.47;;;;;;;9.51;89.47;100609.72;5013344;28;20034;-77
2021/11/17 14:12:38;;;;;;;18.60;2.72;;;;;;;9.56;89.19;100611.81;5016188;28;20120;-78
2021/11/17 14:15:06;;;;;;;16.27;2.78;;;;;;;9.48;89.61;100606.59;5012945;28;20037;-78
2021/11/17 14:17:32;;;;;;;18.58;2.80;;;;;;;9.48;90.18;100611.97;5013946;28;20022;-77
2021/11/17 14:19:57;;;;;;;19.25;2.60;;;;;;;9.44;89.82;100616.06;5013239;28;20135;-78
2021/11/17 14:22:23;;;;;;;13.05;2.60;;;;;;;9.37;90.13;100613.31;5012761;28;20030;-77